createdAt,value
2023-04-27T00:01:01.090Z,14.0
2023-04-27T00:06:01.113Z,12.9
2023-04-27T00:16:01.099Z,13.6
2023-04-27T00:21:01.084Z,14.8
2023-04-27T00:26:01.061Z,13.3
2023-04-27T00:31:01.081Z,14.5
2023-04-27T00:36:01.090Z,14.6
2023-04-27T00:41:01.202Z,14.2
2023-04-27T00:46:01.102Z,13.7
2023-04-27T00:51:01.079Z,15.0
2023-04-27T00:56:01.097Z,15.4
2023-04-27T01:01:01.104Z,15.8
2023-04-27T01:06:01.074Z,15.7
2023-04-27T01:11:01.107Z,17.0
2023-04-27T01:16:01.152Z,17.6
2023-04-27T01:21:01.076Z,17.9
2023-04-27T01:26:01.064Z,18.8
2023-04-27T01:31:01.895Z,20.0
2023-04-27T01:36:01.065Z,19.9
2023-04-27T01:41:01.700Z,18.6
2023-04-27T01:51:01.052Z,20.6
2023-04-27T01:56:01.518Z,21.1
2023-04-27T02:06:01.083Z,23.4
2023-04-27T02:11:01.083Z,24.2
2023-04-27T02:16:01.090Z,23.2
2023-04-27T02:21:01.087Z,24.0
2023-04-27T02:26:01.086Z,25.2
2023-04-27T02:31:01.164Z,25.3
2023-04-27T02:36:01.086Z,26.2
2023-04-27T02:41:01.072Z,24.7
2023-04-27T02:46:01.081Z,22.8
2023-04-27T02:51:01.134Z,22.2
2023-04-27T02:56:01.059Z,21.4
2023-04-27T03:01:01.141Z,20.2
2023-04-27T03:06:01.174Z,19.0
2023-04-27T03:11:01.076Z,18.8
2023-04-27T03:16:01.092Z,17.9
2023-04-27T03:21:01.079Z,17.1
2023-04-27T03:26:01.109Z,16.5
2023-04-27T03:31:01.066Z,17.8
2023-04-27T03:36:01.077Z,18.5
2023-04-27T03:41:06.182Z,18.0
2023-04-27T03:46:01.112Z,18.2
2023-04-27T03:51:02.149Z,16.9
2023-04-27T03:56:01.059Z,16.4
2023-04-27T04:01:01.087Z,16.0
2023-04-27T04:06:01.486Z,17.1
2023-04-27T04:11:01.078Z,18.1
2023-04-27T04:16:01.123Z,20.2
2023-04-27T04:21:01.085Z,19.6
2023-04-27T04:26:01.070Z,19.4
2023-04-27T04:31:01.152Z,18.0
2023-04-27T04:36:01.170Z,17.8
2023-04-27T04:41:01.191Z,16.8
2023-04-27T04:46:01.056Z,18.7
2023-04-27T04:51:01.058Z,19.6
2023-04-27T04:56:09.693Z,22.2
2023-04-27T05:01:01.065Z,23.3
2023-04-27T05:06:01.656Z,25.6
2023-04-27T05:11:01.080Z,29.7
2023-04-27T05:16:01.211Z,32.1
2023-04-27T05:21:01.165Z,33.0
2023-04-27T05:26:01.057Z,33.9
2023-04-27T05:31:01.459Z,34.0
2023-04-27T05:36:01.076Z,31.5
2023-04-27T05:41:01.771Z,29.1
2023-04-27T05:46:01.124Z,27.2
2023-04-27T05:51:01.649Z,24.8
2023-04-27T05:56:02.083Z,23.1
2023-04-27T06:01:01.189Z,21.5
2023-04-27T06:06:02.113Z,21.8
2023-04-27T06:11:01.069Z,21.3
2023-04-27T06:16:02.340Z,22.5
2023-04-27T06:21:01.860Z,24.3
2023-04-27T06:26:02.061Z,25.0
2023-04-27T06:36:01.709Z,25.2
2023-04-27T06:41:01.702Z,25.1
2023-04-27T06:46:01.709Z,23.1
2023-04-27T06:51:01.569Z,21.5
2023-04-27T06:56:01.541Z,21.7
2023-04-27T07:01:01.499Z,20.8
2023-04-27T07:06:01.076Z,20.3
2023-04-27T07:11:01.700Z,20.9
2023-04-27T07:16:02.111Z,21.7
2023-04-27T07:21:01.497Z,20.8
2023-04-27T07:26:01.531Z,20.3
2023-04-27T07:31:03.374Z,19.2
2023-04-27T07:36:01.553Z,18.3
2023-04-27T07:41:01.800Z,17.7
2023-04-27T07:46:01.739Z,16.4
2023-04-27T07:51:01.630Z,16.3
2023-04-27T07:56:01.087Z,16.2
2023-04-27T08:01:01.055Z,15.6
2023-04-27T08:06:01.437Z,15.0
2023-04-27T08:11:01.527Z,15.7
2023-04-27T08:21:01.737Z,16.6
2023-04-27T08:26:01.786Z,17.1
2023-04-27T08:31:01.756Z,16.6
2023-04-27T08:36:01.593Z,16.4
2023-04-27T08:41:21.593Z,16.6
2023-04-27T08:46:01.948Z,15.2
2023-04-27T08:51:02.054Z,14.6
2023-04-27T08:56:03.524Z,15.6
2023-04-27T09:01:01.115Z,15.1
2023-04-27T09:07:09.034Z,14.8
2023-04-27T09:12:12.175Z,15.7
2023-04-27T09:17:01.134Z,15.8
2023-04-27T09:22:01.053Z,15.6
2023-04-27T09:27:01.224Z,15.9
2023-04-27T09:32:01.165Z,16.3
2023-04-27T09:37:01.105Z,15.6
2023-04-27T09:42:01.786Z,17.0
2023-04-27T09:47:01.186Z,16.8
2023-04-27T09:52:01.078Z,17.6
2023-04-27T09:57:07.256Z,18.5
2023-04-27T10:02:29.649Z,19.3
2023-04-27T10:08:02.519Z,18.3
2023-04-27T10:13:01.087Z,18.4
2023-04-27T10:18:01.089Z,17.6
2023-04-27T10:23:01.522Z,16.9
2023-04-27T10:28:02.119Z,16.0
2023-04-27T10:33:01.207Z,15.3
2023-04-27T10:38:01.077Z,13.7
2023-04-27T10:43:01.065Z,13.9
2023-04-27T10:48:01.336Z,13.6
2023-04-27T10:53:01.166Z,14.2
2023-04-27T10:58:01.149Z,14.5
2023-04-27T11:03:01.276Z,15.4
2023-04-27T11:08:01.064Z,14.1
2023-04-27T11:13:01.500Z,13.8
2023-04-27T11:18:01.064Z,12.8
2023-04-27T11:23:01.612Z,12.7
2023-04-27T11:28:01.062Z,12.8
2023-04-27T11:33:01.270Z,13.7
2023-04-27T11:38:01.569Z,13.6
2023-04-27T11:48:01.733Z,13.1
2023-04-27T11:53:01.523Z,13.2
2023-04-27T11:58:01.057Z,13.9
2023-04-27T12:03:01.702Z,14.8
2023-04-27T12:08:01.597Z,15.3
2023-04-27T12:13:01.480Z,16.9
2023-04-27T12:18:01.145Z,17.9
2023-04-27T12:23:01.925Z,17.8
2023-04-27T12:33:01.217Z,18.4
2023-04-27T12:38:01.077Z,18.0
2023-04-27T12:43:01.404Z,19.0
2023-04-27T12:48:03.110Z,20.2
2023-04-27T12:53:01.666Z,20.6
2023-04-27T12:58:01.091Z,22.0
2023-04-27T13:03:01.185Z,23.6
2023-04-27T13:13:01.086Z,24.7
2023-04-27T13:18:01.658Z,24.3
2023-04-27T13:23:01.086Z,23.4
2023-04-27T13:33:10.737Z,22.8
2023-04-27T13:38:01.090Z,22.4
2023-04-27T13:43:01.065Z,24.8
2023-04-27T13:48:03.810Z,25.2
2023-04-27T13:53:01.128Z,26.1
2023-04-27T13:58:01.219Z,26.8
2023-04-27T14:03:01.209Z,25.9
2023-04-27T14:08:01.056Z,24.3
2023-04-27T14:18:01.108Z,23.6
2023-04-27T14:23:01.237Z,23.9
2023-04-27T14:28:01.099Z,24.4
2023-04-27T14:38:01.113Z,23.5
2023-04-27T14:43:01.067Z,23.1
2023-04-27T14:48:01.164Z,22.8
2023-04-27T14:53:01.449Z,23.2
2023-04-27T14:58:01.094Z,23.7
2023-04-27T15:03:01.125Z,24.8
2023-04-27T15:08:01.202Z,25.9
2023-04-27T15:13:01.774Z,25.5
2023-04-27T15:18:01.125Z,24.3
2023-04-27T15:23:01.120Z,23.4
2023-04-27T15:28:01.055Z,22.9
2023-04-27T15:33:01.692Z,22.4
2023-04-27T15:38:01.085Z,22.7
2023-04-27T15:43:01.067Z,23.4
2023-04-27T15:48:02.305Z,23.6
2023-04-27T15:53:01.059Z,23.3
2023-04-27T15:58:01.120Z,23.2
2023-04-27T16:03:01.151Z,23.1
2023-04-27T16:08:01.063Z,22.9
2023-04-27T16:13:01.122Z,22.3
2023-04-27T16:18:01.128Z,22.7
2023-04-27T16:23:01.076Z,21.5
2023-04-27T16:28:01.062Z,21.7
2023-04-27T16:38:01.558Z,22.6
2023-04-27T16:43:01.658Z,22.0
2023-04-27T16:53:01.155Z,20.4
2023-04-27T16:58:01.085Z,20.3
2023-04-27T17:03:01.134Z,19.2
2023-04-27T17:08:01.798Z,18.5
2023-04-27T17:13:01.051Z,18.6
2023-04-27T17:18:01.997Z,19.1
2023-04-27T17:23:01.059Z,17.7
2023-04-27T17:28:01.721Z,17.3
2023-04-27T17:33:01.099Z,17.5
2023-04-27T17:38:01.603Z,16.5
2023-04-27T17:43:01.152Z,16.7
2023-04-27T17:48:02.151Z,17.3
2023-04-27T17:53:01.067Z,16.3
2023-04-27T17:59:01.079Z,16.6
2023-04-27T18:04:03.091Z,16.0
2023-04-27T18:09:01.057Z,14.5
2023-04-27T18:14:01.111Z,12.6
2023-04-27T18:19:01.088Z,12.1
2023-04-27T18:24:01.865Z,10.2
2023-04-27T18:29:01.063Z,9.8
2023-04-27T18:34:01.660Z,10.4
2023-04-27T18:39:01.100Z,10.7
2023-04-27T18:44:02.905Z,10.9
2023-04-27T18:49:01.078Z,11.3
2023-04-27T18:55:01.484Z,11.4
2023-04-27T19:00:02.314Z,10.8
2023-04-27T19:05:14.532Z,10.9
2023-04-27T19:10:01.069Z,10.7
2023-04-27T19:15:02.250Z,11.0
2023-04-27T19:20:01.057Z,10.8
2023-04-27T19:25:01.055Z,10.2
2023-04-27T19:30:01.634Z,10.4
2023-04-27T19:35:01.642Z,11.1
2023-04-27T19:40:01.553Z,12.4
2023-04-27T19:45:01.438Z,13.4
2023-04-27T19:50:01.072Z,15.2
2023-04-27T19:55:01.107Z,15.5
2023-04-27T20:00:01.099Z,16.4
2023-04-27T20:05:01.410Z,15.2
2023-04-27T20:15:01.864Z,14.3
2023-04-27T20:20:01.078Z,13.9
2023-04-27T20:25:01.097Z,13.2
2023-04-27T20:30:01.701Z,14.3
2023-04-27T20:35:02.129Z,13.8
2023-04-27T20:40:01.777Z,14.4
2023-04-27T20:45:01.600Z,15.6
2023-04-27T20:50:01.468Z,16.7
2023-04-27T20:55:01.093Z,17.4
2023-04-27T21:00:01.858Z,19.2
2023-04-27T21:05:01.121Z,18.8
2023-04-27T21:10:01.068Z,17.7
2023-04-27T21:15:01.737Z,16.5
2023-04-27T21:20:01.124Z,15.8
2023-04-27T21:25:03.131Z,14.9
2023-04-27T21:30:01.675Z,16.8
2023-04-27T21:35:01.074Z,18.1
2023-04-27T21:40:01.051Z,20.0
2023-04-27T21:45:07.100Z,20.2
2023-04-27T21:50:01.055Z,19.8
2023-04-27T21:55:01.080Z,20.1
2023-04-27T22:00:01.693Z,22.2
2023-04-27T22:05:01.073Z,21.8
2023-04-27T22:10:01.044Z,22.4
2023-04-27T22:15:01.581Z,24.4
2023-04-27T22:20:01.040Z,24.6
2023-04-27T22:25:01.596Z,23.1
2023-04-27T22:30:01.903Z,23.0
2023-04-27T22:35:01.064Z,21.8
2023-04-27T22:40:01.042Z,21.2
2023-04-27T22:45:01.651Z,19.4
2023-04-27T22:55:02.166Z,21.0
2023-04-27T23:00:01.591Z,22.0
2023-04-27T23:10:01.078Z,23.7
2023-04-27T23:15:01.475Z,24.2
2023-04-27T23:20:01.054Z,24.4
2023-04-27T23:25:01.134Z,25.1
2023-04-27T23:30:02.508Z,26.1
2023-04-27T23:35:01.149Z,26.7
2023-04-27T23:40:01.081Z,28.5
2023-04-27T23:45:01.615Z,29.0
2023-04-27T23:50:01.061Z,29.4
2023-04-27T23:55:01.513Z,29.8
